sensor_id;sensor_type;location;lat;lon;timestamp;temperature;humidity
31113;DHT22;17763;48.730;9.136;2023-07-28T00:00:25;18.00;99.90
31113;DHT22;17763;48.730;9.136;2023-07-28T00:02:50;18.00;99.90
31113;DHT22;17763;48.730;9.136;2023-07-28T00:05:16;18.00;99.90
31113;DHT22;17763;48.730;9.136;2023-07-28T00:07:42;18.00;99.90
31113;DHT22;17763;48.730;9.136;2023-07-28T00:10:16;17.90;99.90
31113;DHT22;17763;48.730;9.136;2023-07-28T00:12:42;17.90;99.90
31113;DHT22;17763;48.730;9.136;2023-07-28T00:15:07;17.80;99.90
31113;DHT22;17763;48.730;9.136;2023-07-28T00:17:33;17.80;99.90
31113;DHT22;17763;48.730;9.136;2023-07-28T00:20:01;17.80;99.90
31113;DHT22;17763;48.730;9.136;2023-07-28T00:22:27;17.80;99.90
31113;DHT22;17763;48.730;9.136;2023-07-28T00:24:52;17.80;99.90
31113;DHT22;17763;48.730;9.136;2023-07-28T00:27:18;17.80;99.90
31113;DHT22;17763;48.730;9.136;2023-07-28T00:29:44;17.70;99.90
31113;DHT22;17763;48.730;9.136;2023-07-28T00:32:09;17.70;99.90
31113;DHT22;17763;48.730;9.136;2023-07-28T00:34:37;17.70;99.90
31113;DHT22;17763;48.730;9.136;2023-07-28T00:37:03;17.70;99.90
31113;DHT22;17763;48.730;9.136;2023-07-28T00:39:28;17.70;99.90
31113;DHT22;17763;48.730;9.136;2023-07-28T00:41:56;17.70;99.90
31113;DHT22;17763;48.730;9.136;2023-07-28T00:44:22;17.70;99.90
31113;DHT22;17763;48.730;9.136;2023-07-28T00:46:48;17.60;99.90
31113;DHT22;17763;48.730;9.136;2023-07-28T00:49:13;17.60;99.90
31113;DHT22;17763;48.730;9.136;2023-07-28T00:51:43;17.60;99.90
31113;DHT22;17763;48.730;9.136;2023-07-28T00:54:08;17.60;99.90
31113;DHT22;17763;48.730;9.136;2023-07-28T00:56:34;17.60;99.90
31113;DHT22;17763;48.730;9.136;2023-07-28T00:59:00;17.60;99.90
31113;DHT22;17763;48.730;9.136;2023-07-28T01:01:26;17.60;99.90
31113;DHT22;17763;48.730;9.136;2023-07-28T01:03:52;17.60;99.90
31113;DHT22;17763;48.730;9.136;2023-07-28T01:06:32;17.60;99.90
31113;DHT22;17763;48.730;9.136;2023-07-28T01:09:10;17.60;99.90
31113;DHT22;17763;48.730;9.136;2023-07-28T01:11:57;17.60;99.90
31113;DHT22;17763;48.730;9.136;2023-07-28T01:14:22;17.60;99.90
31113;DHT22;17763;48.730;9.136;2023-07-28T01:16:48;17.60;99.90
31113;DHT22;17763;48.730;9.136;2023-07-28T01:19:19;17.60;99.90
31113;DHT22;17763;48.730;9.136;2023-07-28T01:21:49;17.50;99.90
31113;DHT22;17763;48.730;9.136;2023-07-28T01:24:28;17.50;99.90
31113;DHT22;17763;48.730;9.136;2023-07-28T01:26:56;17.50;99.90
31113;DHT22;17763;48.730;9.136;2023-07-28T01:29:22;17.50;99.90
31113;DHT22;17763;48.730;9.136;2023-07-28T01:31:48;17.50;99.90
31113;DHT22;17763;48.730;9.136;2023-07-28T01:34:13;17.40;99.90
31113;DHT22;17763;48.730;9.136;2023-07-28T01:36:39;17.40;99.90
31113;DHT22;17763;48.730;9.136;2023-07-28T01:39:05;17.40;99.90
31113;DHT22;17763;48.730;9.136;2023-07-28T01:41:30;17.40;99.90
31113;DHT22;17763;48.730;9.136;2023-07-28T01:43:56;17.40;99.90
31113;DHT22;17763;48.730;9.136;2023-07-28T01:46:22;17.40;99.90
31113;DHT22;17763;48.730;9.136;2023-07-28T01:48:48;17.40;99.90
31113;DHT22;17763;48.730;9.136;2023-07-28T01:51:13;17.40;99.90
31113;DHT22;17763;48.730;9.136;2023-07-28T01:53:39;17.50;99.90
31113;DHT22;17763;48.730;9.136;2023-07-28T01:56:05;17.40;99.90
31113;DHT22;17763;48.730;9.136;2023-07-28T01:58:30;17.40;99.90
31113;DHT22;17763;48.730;9.136;2023-07-28T02:00:56;17.40;99.90
31113;DHT22;17763;48.730;9.136;2023-07-28T02:03:21;17.50;99.90
31113;DHT22;17763;48.730;9.136;2023-07-28T02:05:51;17.50;99.90
31113;DHT22;17763;48.730;9.136;2023-07-28T02:08:18;17.50;99.90
31113;DHT22;17763;48.730;9.136;2023-07-28T02:10:44;17.50;99.90
31113;DHT22;17763;48.730;9.136;2023-07-28T02:13:10;17.60;99.90
31113;DHT22;17763;48.730;9.136;2023-07-28T02:15:35;17.50;99.90
31113;DHT22;17763;48.730;9.136;2023-07-28T02:18:01;17.60;99.90
31113;DHT22;17763;48.730;9.136;2023-07-28T02:20:26;17.50;99.90
31113;DHT22;17763;48.730;9.136;2023-07-28T02:22:57;17.50;99.90
31113;DHT22;17763;48.730;9.136;2023-07-28T02:25:22;17.50;99.90
31113;DHT22;17763;48.730;9.136;2023-07-28T02:27:48;17.50;99.90
31113;DHT22;17763;48.730;9.136;2023-07-28T02:30:14;17.60;99.90
31113;DHT22;17763;48.730;9.136;2023-07-28T02:32:39;17.50;99.90
31113;DHT22;17763;48.730;9.136;2023-07-28T02:35:05;17.60;99.90
31113;DHT22;17763;48.730;9.136;2023-07-28T02:37:31;17.50;99.90
31113;DHT22;17763;48.730;9.136;2023-07-28T02:39:56;17.50;99.90
31113;DHT22;17763;48.730;9.136;2023-07-28T02:42:22;17.50;99.90
31113;DHT22;17763;48.730;9.136;2023-07-28T02:44:49;17.50;99.90
31113;DHT22;17763;48.730;9.136;2023-07-28T02:47:14;17.50;99.90
31113;DHT22;17763;48.730;9.136;2023-07-28T02:49:41;17.60;99.90
31113;DHT22;17763;48.730;9.136;2023-07-28T02:52:07;17.50;99.90
31113;DHT22;17763;48.730;9.136;2023-07-28T02:54:33;17.60;99.90
31113;DHT22;17763;48.730;9.136;2023-07-28T02:56:58;17.60;99.90
31113;DHT22;17763;48.730;9.136;2023-07-28T02:59:24;17.60;99.90
31113;DHT22;17763;48.730;9.136;2023-07-28T03:01:52;17.60;99.90
31113;DHT22;17763;48.730;9.136;2023-07-28T03:04:20;17.60;99.90
31113;DHT22;17763;48.730;9.136;2023-07-28T03:06:46;17.60;99.90
31113;DHT22;17763;48.730;9.136;2023-07-28T03:09:12;17.60;99.90
31113;DHT22;17763;48.730;9.136;2023-07-28T03:11:43;17.60;99.90
31113;DHT22;17763;48.730;9.136;2023-07-28T03:14:09;17.60;99.90
31113;DHT22;17763;48.730;9.136;2023-07-28T03:16:35;17.70;99.90
31113;DHT22;17763;48.730;9.136;2023-07-28T03:19:00;17.70;99.90
31113;DHT22;17763;48.730;9.136;2023-07-28T03:23:54;17.70;99.90
31113;DHT22;17763;48.730;9.136;2023-07-28T03:26:19;17.70;99.90
31113;DHT22;17763;48.730;9.136;2023-07-28T03:28:45;17.70;99.90
31113;DHT22;17763;48.730;9.136;2023-07-28T03:31:11;17.80;99.90
31113;DHT22;17763;48.730;9.136;2023-07-28T03:33:36;17.80;99.90
31113;DHT22;17763;48.730;9.136;2023-07-28T03:36:02;17.80;99.90
31113;DHT22;17763;48.730;9.136;2023-07-28T03:38:27;17.80;99.90
31113;DHT22;17763;48.730;9.136;2023-07-28T03:40:53;17.80;99.90
31113;DHT22;17763;48.730;9.136;2023-07-28T03:43:24;17.80;99.90
31113;DHT22;17763;48.730;9.136;2023-07-28T03:45:50;17.80;99.90
31113;DHT22;17763;48.730;9.136;2023-07-28T03:48:16;17.90;99.90
31113;DHT22;17763;48.730;9.136;2023-07-28T03:50:44;17.90;99.90
31113;DHT22;17763;48.730;9.136;2023-07-28T03:53:09;17.90;99.90
31113;DHT22;17763;48.730;9.136;2023-07-28T03:55:35;17.90;99.90
31113;DHT22;17763;48.730;9.136;2023-07-28T03:58:01;17.90;99.90
31113;DHT22;17763;48.730;9.136;2023-07-28T04:00:26;17.90;99.90
31113;DHT22;17763;48.730;9.136;2023-07-28T04:02:52;18.00;99.90
31113;DHT22;17763;48.730;9.136;2023-07-28T04:05:20;18.00;99.90
31113;DHT22;17763;48.730;9.136;2023-07-28T04:07:46;17.90;99.90
31113;DHT22;17763;48.730;9.136;2023-07-28T04:10:12;17.90;99.90
31113;DHT22;17763;48.730;9.136;2023-07-28T04:12:40;17.80;99.90
31113;DHT22;17763;48.730;9.136;2023-07-28T04:15:06;17.70;99.90
31113;DHT22;17763;48.730;9.136;2023-07-28T04:17:31;17.70;99.90
31113;DHT22;17763;48.730;9.136;2023-07-28T04:19:57;17.70;99.90
31113;DHT22;17763;48.730;9.136;2023-07-28T04:22:23;17.60;99.90
31113;DHT22;17763;48.730;9.136;2023-07-28T04:24:48;17.60;99.90
31113;DHT22;17763;48.730;9.136;2023-07-28T04:27:18;17.60;99.90
31113;DHT22;17763;48.730;9.136;2023-07-28T04:29:43;17.50;99.90
31113;DHT22;17763;48.730;9.136;2023-07-28T04:32:09;17.60;99.90
31113;DHT22;17763;48.730;9.136;2023-07-28T04:34:35;17.60;99.90
31113;DHT22;17763;48.730;9.136;2023-07-28T04:37:00;17.60;99.90
31113;DHT22;17763;48.730;9.136;2023-07-28T04:39:26;17.60;99.90
31113;DHT22;17763;48.730;9.136;2023-07-28T04:41:52;17.60;99.90
31113;DHT22;17763;48.730;9.136;2023-07-28T04:44:18;17.70;99.90
31113;DHT22;17763;48.730;9.136;2023-07-28T04:46:44;17.70;99.90
31113;DHT22;17763;48.730;9.136;2023-07-28T04:49:18;17.70;99.90
31113;DHT22;17763;48.730;9.136;2023-07-28T04:51:48;17.70;99.90
31113;DHT22;17763;48.730;9.136;2023-07-28T04:54:14;17.70;99.90
31113;DHT22;17763;48.730;9.136;2023-07-28T04:56:39;17.80;99.90
31113;DHT22;17763;48.730;9.136;2023-07-28T04:59:05;17.70;99.90
31113;DHT22;17763;48.730;9.136;2023-07-28T05:01:32;17.70;99.90
31113;DHT22;17763;48.730;9.136;2023-07-28T05:03:58;17.70;99.90
31113;DHT22;17763;48.730;9.136;2023-07-28T05:06:23;17.80;99.90
31113;DHT22;17763;48.730;9.136;2023-07-28T05:08:49;17.80;99.90
31113;DHT22;17763;48.730;9.136;2023-07-28T05:11:14;17.80;99.90
31113;DHT22;17763;48.730;9.136;2023-07-28T05:13:40;17.80;99.90
31113;DHT22;17763;48.730;9.136;2023-07-28T05:16:06;17.80;99.90
31113;DHT22;17763;48.730;9.136;2023-07-28T05:18:34;17.80;99.90
31113;DHT22;17763;48.730;9.136;2023-07-28T05:21:00;17.80;99.90
31113;DHT22;17763;48.730;9.136;2023-07-28T05:23:25;17.70;99.90
31113;DHT22;17763;48.730;9.136;2023-07-28T05:25:51;17.70;99.90
31113;DHT22;17763;48.730;9.136;2023-07-28T05:28:16;17.80;99.90
31113;DHT22;17763;48.730;9.136;2023-07-28T05:30:42;17.80;99.90
31113;DHT22;17763;48.730;9.136;2023-07-28T05:33:08;17.70;99.90
31113;DHT22;17763;48.730;9.136;2023-07-28T05:35:33;17.60;99.90
31113;DHT22;17763;48.730;9.136;2023-07-28T05:38:01;17.60;99.90
31113;DHT22;17763;48.730;9.136;2023-07-28T05:40:26;17.60;99.90
31113;DHT22;17763;48.730;9.136;2023-07-28T05:42:52;17.60;99.90
31113;DHT22;17763;48.730;9.136;2023-07-28T05:45:18;17.60;99.90
31113;DHT22;17763;48.730;9.136;2023-07-28T05:47:46;17.60;99.90
31113;DHT22;17763;48.730;9.136;2023-07-28T05:50:12;17.60;99.90
31113;DHT22;17763;48.730;9.136;2023-07-28T05:52:37;17.60;99.90
31113;DHT22;17763;48.730;9.136;2023-07-28T05:55:03;17.60;99.90
31113;DHT22;17763;48.730;9.136;2023-07-28T05:57:29;17.50;99.90
31113;DHT22;17763;48.730;9.136;2023-07-28T05:59:54;17.50;99.90
31113;DHT22;17763;48.730;9.136;2023-07-28T06:02:20;17.50;99.90
31113;DHT22;17763;48.730;9.136;2023-07-28T06:04:45;17.50;99.90
31113;DHT22;17763;48.730;9.136;2023-07-28T06:07:11;17.40;99.90
31113;DHT22;17763;48.730;9.136;2023-07-28T06:09:37;17.50;99.90
31113;DHT22;17763;48.730;9.136;2023-07-28T06:12:03;17.60;99.90
31113;DHT22;17763;48.730;9.136;2023-07-28T06:14:29;17.60;99.90
31113;DHT22;17763;48.730;9.136;2023-07-28T06:16:54;17.60;99.90
31113;DHT22;17763;48.730;9.136;2023-07-28T06:19:20;17.60;99.90
31113;DHT22;17763;48.730;9.136;2023-07-28T06:21:50;17.60;99.90
31113;DHT22;17763;48.730;9.136;2023-07-28T06:24:21;17.60;99.90
31113;DHT22;17763;48.730;9.136;2023-07-28T06:26:46;17.60;99.90
31113;DHT22;17763;48.730;9.136;2023-07-28T06:29:12;17.70;99.90
31113;DHT22;17763;48.730;9.136;2023-07-28T06:31:41;17.70;99.90
31113;DHT22;17763;48.730;9.136;2023-07-28T06:34:06;17.70;99.90
31113;DHT22;17763;48.730;9.136;2023-07-28T06:36:34;17.80;99.90
31113;DHT22;17763;48.730;9.136;2023-07-28T06:38:59;17.90;99.90
31113;DHT22;17763;48.730;9.136;2023-07-28T06:41:28;17.90;99.90
31113;DHT22;17763;48.730;9.136;2023-07-28T06:43:53;18.00;99.90
31113;DHT22;17763;48.730;9.136;2023-07-28T06:46:19;18.00;99.90
31113;DHT22;17763;48.730;9.136;2023-07-28T06:48:44;18.10;99.90
31113;DHT22;17763;48.730;9.136;2023-07-28T06:51:10;18.20;99.90
31113;DHT22;17763;48.730;9.136;2023-07-28T06:53:36;18.30;99.90
31113;DHT22;17763;48.730;9.136;2023-07-28T06:56:01;18.40;99.90
31113;DHT22;17763;48.730;9.136;2023-07-28T06:58:27;18.50;99.90
31113;DHT22;17763;48.730;9.136;2023-07-28T07:00:52;18.60;99.90
31113;DHT22;17763;48.730;9.136;2023-07-28T07:03:21;18.70;99.90
31113;DHT22;17763;48.730;9.136;2023-07-28T07:05:46;18.80;99.90
31113;DHT22;17763;48.730;9.136;2023-07-28T07:08:12;18.80;99.90
31113;DHT22;17763;48.730;9.136;2023-07-28T07:10:37;18.90;99.90
31113;DHT22;17763;48.730;9.136;2023-07-28T07:13:03;18.90;99.90
31113;DHT22;17763;48.730;9.136;2023-07-28T07:15:29;19.00;99.90
31113;DHT22;17763;48.730;9.136;2023-07-28T07:17:54;19.00;99.90
31113;DHT22;17763;48.730;9.136;2023-07-28T07:20:20;19.10;99.90
31113;DHT22;17763;48.730;9.136;2023-07-28T07:22:45;19.10;99.90
31113;DHT22;17763;48.730;9.136;2023-07-28T07:25:11;19.20;99.90
31113;DHT22;17763;48.730;9.136;2023-07-28T07:27:39;19.30;99.90
31113;DHT22;17763;48.730;9.136;2023-07-28T07:30:05;19.30;99.90
31113;DHT22;17763;48.730;9.136;2023-07-28T07:32:32;19.50;99.90
31113;DHT22;17763;48.730;9.136;2023-07-28T07:34:58;19.60;99.90
31113;DHT22;17763;48.730;9.136;2023-07-28T07:37:24;19.80;99.90
31113;DHT22;17763;48.730;9.136;2023-07-28T07:39:50;20.00;99.90
31113;DHT22;17763;48.730;9.136;2023-07-28T07:42:15;20.10;99.90
31113;DHT22;17763;48.730;9.136;2023-07-28T07:44:41;20.20;99.90
31113;DHT22;17763;48.730;9.136;2023-07-28T07:47:16;20.30;99.90
31113;DHT22;17763;48.730;9.136;2023-07-28T07:49:42;20.30;99.90
31113;DHT22;17763;48.730;9.136;2023-07-28T07:52:08;20.30;99.90
31113;DHT22;17763;48.730;9.136;2023-07-28T07:54:34;20.30;99.90
31113;DHT22;17763;48.730;9.136;2023-07-28T07:57:03;20.30;99.90
31113;DHT22;17763;48.730;9.136;2023-07-28T07:59:29;20.30;99.90
31113;DHT22;17763;48.730;9.136;2023-07-28T08:01:57;20.30;99.90
31113;DHT22;17763;48.730;9.136;2023-07-28T08:04:25;20.30;99.90
31113;DHT22;17763;48.730;9.136;2023-07-28T08:06:53;20.40;99.90
31113;DHT22;17763;48.730;9.136;2023-07-28T08:09:19;20.40;99.90
31113;DHT22;17763;48.730;9.136;2023-07-28T08:11:44;20.40;99.90
31113;DHT22;17763;48.730;9.136;2023-07-28T08:14:10;20.30;99.90
31113;DHT22;17763;48.730;9.136;2023-07-28T08:16:36;20.20;99.90
31113;DHT22;17763;48.730;9.136;2023-07-28T08:19:01;20.10;99.90
31113;DHT22;17763;48.730;9.136;2023-07-28T08:21:27;20.30;99.90
31113;DHT22;17763;48.730;9.136;2023-07-28T08:23:52;20.40;99.90
31113;DHT22;17763;48.730;9.136;2023-07-28T08:26:21;20.50;99.90
31113;DHT22;17763;48.730;9.136;2023-07-28T08:28:46;20.70;99.90
31113;DHT22;17763;48.730;9.136;2023-07-28T08:31:15;20.80;99.90
31113;DHT22;17763;48.730;9.136;2023-07-28T08:33:41;21.00;99.90
31113;DHT22;17763;48.730;9.136;2023-07-28T08:36:09;21.10;99.90
31113;DHT22;17763;48.730;9.136;2023-07-28T08:38:35;21.20;99.90
31113;DHT22;17763;48.730;9.136;2023-07-28T08:41:00;21.30;99.90
31113;DHT22;17763;48.730;9.136;2023-07-28T08:43:26;21.10;99.90
31113;DHT22;17763;48.730;9.136;2023-07-28T08:45:54;21.00;99.90
31113;DHT22;17763;48.730;9.136;2023-07-28T08:48:20;21.10;99.90
31113;DHT22;17763;48.730;9.136;2023-07-28T08:50:46;21.20;99.90
31113;DHT22;17763;48.730;9.136;2023-07-28T08:53:12;21.30;99.90
31113;DHT22;17763;48.730;9.136;2023-07-28T08:55:37;21.20;99.90
31113;DHT22;17763;48.730;9.136;2023-07-28T08:58:20;21.20;99.90
31113;DHT22;17763;48.730;9.136;2023-07-28T09:00:49;21.30;99.90
31113;DHT22;17763;48.730;9.136;2023-07-28T09:03:17;21.40;99.90
31113;DHT22;17763;48.730;9.136;2023-07-28T09:05:43;21.40;99.90
31113;DHT22;17763;48.730;9.136;2023-07-28T09:08:14;21.40;99.90
31113;DHT22;17763;48.730;9.136;2023-07-28T09:10:52;21.30;99.90
31113;DHT22;17763;48.730;9.136;2023-07-28T09:13:21;21.30;99.90
31113;DHT22;17763;48.730;9.136;2023-07-28T09:15:49;21.30;99.90
31113;DHT22;17763;48.730;9.136;2023-07-28T09:18:16;21.30;99.90
31113;DHT22;17763;48.730;9.136;2023-07-28T09:20:42;21.20;99.90
31113;DHT22;17763;48.730;9.136;2023-07-28T09:23:13;21.10;99.90
31113;DHT22;17763;48.730;9.136;2023-07-28T09:25:39;21.10;99.90
31113;DHT22;17763;48.730;9.136;2023-07-28T09:28:05;21.20;99.90
31113;DHT22;17763;48.730;9.136;2023-07-28T09:30:47;21.30;99.90
31113;DHT22;17763;48.730;9.136;2023-07-28T09:33:13;21.40;99.90
31113;DHT22;17763;48.730;9.136;2023-07-28T09:35:49;21.50;99.90
31113;DHT22;17763;48.730;9.136;2023-07-28T09:38:15;21.60;99.90
31113;DHT22;17763;48.730;9.136;2023-07-28T09:40:42;21.80;99.90
31113;DHT22;17763;48.730;9.136;2023-07-28T09:43:08;22.00;99.90
31113;DHT22;17763;48.730;9.136;2023-07-28T09:45:38;22.10;99.90
31113;DHT22;17763;48.730;9.136;2023-07-28T09:48:09;22.20;99.90
31113;DHT22;17763;48.730;9.136;2023-07-28T09:50:40;22.30;99.90
31113;DHT22;17763;48.730;9.136;2023-07-28T09:53:08;22.40;99.90
31113;DHT22;17763;48.730;9.136;2023-07-28T09:55:38;22.60;99.90
31113;DHT22;17763;48.730;9.136;2023-07-28T09:58:09;22.70;99.90
31113;DHT22;17763;48.730;9.136;2023-07-28T10:00:40;22.90;99.90
31113;DHT22;17763;48.730;9.136;2023-07-28T10:03:05;22.90;99.90
31113;DHT22;17763;48.730;9.136;2023-07-28T10:05:32;22.90;99.90
31113;DHT22;17763;48.730;9.136;2023-07-28T10:07:59;22.90;99.90
31113;DHT22;17763;48.730;9.136;2023-07-28T10:10:25;22.70;99.90
31113;DHT22;17763;48.730;9.136;2023-07-28T10:12:53;22.60;99.90
31113;DHT22;17763;48.730;9.136;2023-07-28T10:15:21;22.60;99.90
31113;DHT22;17763;48.730;9.136;2023-07-28T10:17:57;22.60;99.90
31113;DHT22;17763;48.730;9.136;2023-07-28T10:20:35;22.60;99.90
31113;DHT22;17763;48.730;9.136;2023-07-28T10:23:15;22.50;99.90
31113;DHT22;17763;48.730;9.136;2023-07-28T10:25:43;22.50;99.90
31113;DHT22;17763;48.730;9.136;2023-07-28T10:28:38;22.30;99.90
31113;DHT22;17763;48.730;9.136;2023-07-28T10:31:08;22.20;99.90
31113;DHT22;17763;48.730;9.136;2023-07-28T10:33:37;22.00;99.90
31113;DHT22;17763;48.730;9.136;2023-07-28T10:38:42;22.00;99.90
31113;DHT22;17763;48.730;9.136;2023-07-28T10:41:18;22.10;99.90
31113;DHT22;17763;48.730;9.136;2023-07-28T10:43:51;22.20;99.90
31113;DHT22;17763;48.730;9.136;2023-07-28T10:46:20;22.30;99.90
31113;DHT22;17763;48.730;9.136;2023-07-28T10:48:48;22.30;99.90
31113;DHT22;17763;48.730;9.136;2023-07-28T10:51:23;22.30;99.90
31113;DHT22;17763;48.730;9.136;2023-07-28T10:53:55;22.50;99.90
31113;DHT22;17763;48.730;9.136;2023-07-28T10:56:21;22.60;99.90
31113;DHT22;17763;48.730;9.136;2023-07-28T10:58:58;22.90;99.90
31113;DHT22;17763;48.730;9.136;2023-07-28T11:01:34;23.00;99.90
31113;DHT22;17763;48.730;9.136;2023-07-28T11:04:17;23.30;99.90
31113;DHT22;17763;48.730;9.136;2023-07-28T11:06:46;23.40;99.90
31113;DHT22;17763;48.730;9.136;2023-07-28T11:09:16;23.50;99.90
31113;DHT22;17763;48.730;9.136;2023-07-28T11:11:42;23.60;99.90
31113;DHT22;17763;48.730;9.136;2023-07-28T11:14:09;23.70;99.90
31113;DHT22;17763;48.730;9.136;2023-07-28T11:16:36;23.80;99.20
31113;DHT22;17763;48.730;9.136;2023-07-28T11:19:03;24.00;99.40
31113;DHT22;17763;48.730;9.136;2023-07-28T11:21:39;24.10;98.70
31113;DHT22;17763;48.730;9.136;2023-07-28T11:24:11;24.10;98.30
31113;DHT22;17763;48.730;9.136;2023-07-28T11:26:39;24.10;98.80
31113;DHT22;17763;48.730;9.136;2023-07-28T11:29:06;24.10;98.70
31113;DHT22;17763;48.730;9.136;2023-07-28T11:31:31;24.10;99.20
31113;DHT22;17763;48.730;9.136;2023-07-28T11:33:58;24.00;98.30
31113;DHT22;17763;48.730;9.136;2023-07-28T11:36:24;24.10;99.40
31113;DHT22;17763;48.730;9.136;2023-07-28T11:38:55;24.10;98.70
31113;DHT22;17763;48.730;9.136;2023-07-28T11:41:21;24.10;98.10
31113;DHT22;17763;48.730;9.136;2023-07-28T11:43:48;24.10;99.30
31113;DHT22;17763;48.730;9.136;2023-07-28T11:49:11;23.80;97.90
31113;DHT22;17763;48.730;9.136;2023-07-28T11:51:41;23.70;97.50
31113;DHT22;17763;48.730;9.136;2023-07-28T11:54:20;23.30;95.20
31113;DHT22;17763;48.730;9.136;2023-07-28T11:56:48;23.00;95.70
31113;DHT22;17763;48.730;9.136;2023-07-28T11:59:18;22.60;96.30
31113;DHT22;17763;48.730;9.136;2023-07-28T12:02:11;22.50;97.20
31113;DHT22;17763;48.730;9.136;2023-07-28T12:04:38;22.30;98.80
31113;DHT22;17763;48.730;9.136;2023-07-28T12:07:10;22.30;99.50
31113;DHT22;17763;48.730;9.136;2023-07-28T12:12:16;22.00;99.90
31113;DHT22;17763;48.730;9.136;2023-07-28T12:14:42;22.00;99.90
